createdAt,value
2022-09-10T00:02:35.000Z,35.86
2022-09-10T00:07:34.000Z,35.71
2022-09-10T00:12:35.000Z,36.12
2022-09-10T00:22:35.000Z,37.71
2022-09-10T00:27:35.000Z,38.5
2022-09-10T00:32:34.000Z,39.6
2022-09-10T00:37:35.000Z,38.89
2022-09-10T00:42:34.000Z,39.16
2022-09-10T00:47:34.000Z,39.52
2022-09-10T00:52:35.000Z,39.5
2022-09-10T00:57:34.000Z,40.59
2022-09-10T01:07:35.000Z,39.76
2022-09-10T01:12:35.000Z,39.81
2022-09-10T01:17:35.000Z,39.32
2022-09-10T01:22:35.000Z,39.27
2022-09-10T01:27:34.000Z,38.56
2022-09-10T01:32:35.000Z,37.09
2022-09-10T01:37:34.000Z,36.95
2022-09-10T01:42:35.000Z,38.48
2022-09-10T01:47:34.000Z,38.43
2022-09-10T01:52:35.000Z,38.8
2022-09-10T01:57:34.000Z,38.86
2022-09-10T02:02:34.000Z,38.86
2022-09-10T02:07:35.000Z,39.35
2022-09-10T02:12:34.000Z,39.4
2022-09-10T02:17:34.000Z,39.45
2022-09-10T02:27:34.000Z,41.21
2022-09-10T02:32:34.000Z,40.49
2022-09-10T02:37:34.000Z,40.49
2022-09-10T02:42:34.000Z,40.02
2022-09-10T02:47:34.000Z,40.3
2022-09-10T02:52:35.000Z,39.47
2022-09-10T02:57:35.000Z,39.31
2022-09-10T03:02:34.000Z,39.55
2022-09-10T03:07:34.000Z,40.57
2022-09-10T03:12:35.000Z,40.57
2022-09-10T03:17:35.000Z,42.14
2022-09-10T03:22:35.000Z,41
2022-09-10T03:27:35.000Z,40.77
2022-09-10T03:32:34.000Z,40.93
2022-09-10T03:42:34.000Z,41.72
2022-09-10T03:47:34.000Z,41.84
2022-09-10T03:52:35.000Z,41.67
2022-09-10T03:57:34.000Z,41.67
2022-09-10T04:02:35.000Z,41.28
2022-09-10T04:07:35.000Z,40.42
2022-09-10T04:12:34.000Z,40.42
2022-09-10T04:17:35.000Z,40.26
2022-09-10T04:22:35.000Z,41.35
2022-09-10T04:27:35.000Z,43.01
2022-09-10T04:32:35.000Z,46.91
2022-09-10T04:37:35.000Z,48.67
2022-09-10T04:42:34.000Z,49.42
2022-09-10T04:47:35.000Z,47.36
2022-09-10T04:52:35.000Z,47.51
2022-09-10T04:57:34.000Z,47.05
2022-09-10T05:02:34.000Z,44.47
2022-09-10T05:07:34.000Z,43.56
2022-09-10T05:12:34.000Z,42.23
2022-09-10T05:17:35.000Z,41.53
2022-09-10T05:22:41.000Z,40.52
2022-09-10T05:27:35.000Z,40.52
2022-09-10T05:32:35.000Z,41.02
2022-09-10T05:37:35.000Z,37.09
2022-09-10T05:42:34.000Z,31.01
2022-09-10T05:47:35.000Z,30.11
2022-09-10T05:52:35.000Z,27.45
2022-09-10T05:57:34.000Z,21.94
2022-09-10T06:02:34.000Z,18.94
2022-09-10T06:07:35.000Z,19.23
2022-09-10T06:12:34.000Z,14.6
2022-09-10T06:17:35.000Z,11.64
2022-09-10T06:22:34.000Z,11.97
2022-09-10T06:27:34.000Z,17.73
2022-09-10T06:32:35.000Z,14.42
2022-09-10T06:37:35.000Z,12.44
2022-09-10T06:42:34.000Z,12.44
2022-09-10T06:48:48.000Z,9.97
2022-09-10T06:57:35.000Z,11.6
2022-09-10T07:02:35.000Z,9.63
2022-09-10T07:07:34.000Z,6.68
2022-09-10T07:12:35.000Z,6.78
2022-09-10T07:17:41.000Z,6.64
2022-09-10T07:22:34.000Z,6.27
2022-09-10T07:27:34.000Z,5.16
2022-09-10T07:32:34.000Z,4.61
2022-09-10T07:37:34.000Z,5.34
2022-09-10T07:42:34.000Z,4.29
2022-09-10T07:47:35.000Z,3.94
2022-09-10T07:52:34.000Z,3.55
2022-09-10T07:57:35.000Z,3.55
2022-09-10T08:02:35.000Z,2.32
2022-09-10T08:07:35.000Z,2.87
2022-09-10T08:12:35.000Z,1.79
2022-09-10T08:17:35.000Z,2.38
2022-09-10T08:22:34.000Z,2.94
2022-09-10T08:27:34.000Z,1.86
2022-09-10T08:32:35.000Z,1.71
2022-09-10T08:37:34.000Z,2.31
2022-09-10T08:42:35.000Z,1.7
2022-09-10T08:47:35.000Z,1.53
2022-09-10T08:52:35.000Z,1.7
2022-09-10T08:57:35.000Z,2.05
2022-09-10T09:02:58.000Z,2.08
2022-09-10T09:07:34.000Z,2.22
2022-09-10T09:12:35.000Z,2.22
2022-09-10T09:17:35.000Z,3.77
2022-09-10T09:22:35.000Z,3.01
2022-09-10T09:27:35.000Z,5.59
2022-09-10T09:32:34.000Z,5.94
2022-09-10T09:37:35.000Z,3.04
2022-09-10T09:42:34.000Z,3.2
2022-09-10T09:47:34.000Z,6.7
2022-09-10T09:52:35.000Z,3.56
2022-09-10T09:57:34.000Z,3.2
2022-09-10T10:02:36.000Z,3.78
2022-09-10T10:07:35.000Z,4.9
2022-09-10T10:12:35.000Z,4.95
2022-09-10T10:17:34.000Z,5.19
2022-09-10T10:22:35.000Z,5.68
2022-09-10T10:27:35.000Z,5.68
2022-09-10T10:37:34.000Z,6.75
2022-09-10T10:42:34.000Z,6.57
2022-09-10T10:47:35.000Z,7.32
2022-09-10T10:52:34.000Z,5.91
2022-09-10T10:57:35.000Z,6.6
2022-09-10T11:02:35.000Z,7.8
2022-09-10T11:07:35.000Z,8.93
2022-09-10T11:12:34.000Z,8.24
2022-09-10T11:17:35.000Z,8.57
2022-09-10T11:22:34.000Z,8.89
2022-09-10T11:27:35.000Z,8.97
2022-09-10T11:32:35.000Z,10.72
2022-09-10T11:37:34.000Z,10.72
2022-09-10T11:42:34.000Z,10.16
2022-09-10T11:47:35.000Z,9.44
2022-09-10T11:52:35.000Z,10.18
2022-09-10T11:57:35.000Z,10.7
2022-09-10T12:02:35.000Z,11.46
2022-09-10T12:07:35.000Z,11.32
2022-09-10T12:12:34.000Z,11.1
2022-09-10T12:17:35.000Z,12.31
2022-09-10T12:22:35.000Z,11.91
2022-09-10T12:27:35.000Z,12.07
2022-09-10T12:32:34.000Z,11.67
2022-09-10T12:37:34.000Z,11.06
2022-09-10T12:42:34.000Z,9.75
2022-09-10T12:47:35.000Z,10.84
2022-09-10T12:52:35.000Z,10.84
2022-09-10T12:57:35.000Z,11.34
2022-09-10T13:02:34.000Z,10.59
2022-09-10T13:07:34.000Z,9.84
2022-09-10T13:12:35.000Z,11.8
2022-09-10T13:17:34.000Z,14.29
2022-09-10T13:22:34.000Z,12.32
2022-09-10T13:27:35.000Z,13.13
2022-09-10T13:32:35.000Z,12.65
2022-09-10T13:37:35.000Z,14
2022-09-10T13:42:35.000Z,14.62
2022-09-10T13:47:34.000Z,14.61
2022-09-10T13:52:35.000Z,14.48
2022-09-10T13:57:35.000Z,15.01
2022-09-10T14:02:35.000Z,14.36
2022-09-10T14:07:35.000Z,14.36
2022-09-10T14:17:34.000Z,14.96
2022-09-10T14:22:35.000Z,13.02
2022-09-10T14:27:35.000Z,13.31
2022-09-10T14:32:35.000Z,13.88
2022-09-10T14:37:35.000Z,13.67
2022-09-10T14:42:35.000Z,13.22
2022-09-10T14:47:35.000Z,13.71
2022-09-10T14:52:35.000Z,13.65
2022-09-10T14:57:34.000Z,13.93
2022-09-10T15:02:35.000Z,13.29
2022-09-10T15:07:34.000Z,13.29
2022-09-10T15:12:35.000Z,14.37
2022-09-10T15:17:34.000Z,13.92
2022-09-10T15:22:34.000Z,15.21
2022-09-10T15:27:34.000Z,15.21
2022-09-10T15:37:35.000Z,39.61
2022-09-10T15:42:34.000Z,23.29
2022-09-10T15:52:35.000Z,21.96
2022-09-10T15:57:34.000Z,22.11
2022-09-10T16:02:35.000Z,21.04
2022-09-10T16:07:35.000Z,20.27
2022-09-10T16:12:35.000Z,23.6
2022-09-10T16:17:35.000Z,30.56
2022-09-10T16:22:35.000Z,39.27
2022-09-10T16:27:34.000Z,41.17
2022-09-10T16:32:35.000Z,35.98
2022-09-10T16:37:35.000Z,26.88
2022-09-10T16:42:34.000Z,27.54
2022-09-10T16:47:35.000Z,27.83
2022-09-10T16:52:35.000Z,27.13
2022-09-10T16:57:35.000Z,27.13
2022-09-10T17:02:35.000Z,28.33
2022-09-10T17:07:35.000Z,33.52
2022-09-10T17:12:34.000Z,31.33
2022-09-10T17:17:35.000Z,31.65
2022-09-10T17:22:34.000Z,34.46
2022-09-10T17:27:35.000Z,34.86
2022-09-10T17:32:35.000Z,35.19
2022-09-10T17:37:35.000Z,35.76
2022-09-10T17:42:35.000Z,36.73
2022-09-10T17:47:34.000Z,37.68
2022-09-10T17:52:34.000Z,39.27
2022-09-10T17:57:34.000Z,39.25
2022-09-10T18:02:34.000Z,39.16
2022-09-10T18:07:34.000Z,40.6
2022-09-10T18:12:35.000Z,40.6
2022-09-10T18:17:35.000Z,40.91
2022-09-10T18:22:35.000Z,41.81
2022-09-10T18:27:35.000Z,41.32
2022-09-10T18:32:36.000Z,41.96
2022-09-10T18:42:35.000Z,42.32
2022-09-10T18:47:54.000Z,42.44
2022-09-10T18:52:34.000Z,42.2
2022-09-10T18:57:34.000Z,43.96
2022-09-10T19:02:34.000Z,53.99
2022-09-10T19:07:35.000Z,43.81
2022-09-10T19:12:35.000Z,44.28
2022-09-10T19:17:34.000Z,45.72
2022-09-10T19:22:35.000Z,45.72
2022-09-10T19:27:35.000Z,47.2
2022-09-10T19:32:34.000Z,43.09
2022-09-10T19:37:35.000Z,43.29
2022-09-10T19:42:35.000Z,45.6
2022-09-10T19:47:34.000Z,44.98
2022-09-10T19:52:35.000Z,45.27
2022-09-10T19:57:35.000Z,47.29
2022-09-10T20:02:35.000Z,45.5
2022-09-10T20:07:35.000Z,45.78
2022-09-10T20:12:35.000Z,46.24
2022-09-10T20:17:35.000Z,46.51
2022-09-10T20:22:34.000Z,46.83
2022-09-10T20:27:34.000Z,45.96
2022-09-10T20:32:35.000Z,47.1
2022-09-10T20:37:34.000Z,47.1
2022-09-10T20:42:34.000Z,50.08
2022-09-10T20:47:34.000Z,47.82
2022-09-10T20:52:34.000Z,47.37
2022-09-10T20:57:35.000Z,46.85
2022-09-10T21:02:35.000Z,46.6
2022-09-10T21:07:34.000Z,45.94
2022-09-10T21:12:34.000Z,45.77
2022-09-10T21:17:35.000Z,45.3
2022-09-10T21:22:34.000Z,45.97
2022-09-10T21:27:35.000Z,46.34
2022-09-10T21:32:35.000Z,46.28
2022-09-10T21:37:34.000Z,45.27
2022-09-10T21:42:35.000Z,44.92
2022-09-10T21:47:35.000Z,44.86
2022-09-10T21:52:35.000Z,44.86
2022-09-10T21:57:34.000Z,44.73
2022-09-10T22:02:35.000Z,44.25
2022-09-10T22:07:34.000Z,43.77
2022-09-10T22:12:35.000Z,44.12
2022-09-10T22:17:34.000Z,44.34
2022-09-10T22:22:35.000Z,45.73
2022-09-10T22:27:34.000Z,45.36
2022-09-10T22:32:35.000Z,45.44
2022-09-10T22:37:35.000Z,44.32
2022-09-10T22:42:35.000Z,45.89
2022-09-10T22:47:35.000Z,47.94
2022-09-10T22:52:35.000Z,46.84
2022-09-10T22:57:34.000Z,43.88
2022-09-10T23:02:34.000Z,44.86
2022-09-10T23:07:34.000Z,45.1
2022-09-10T23:12:35.000Z,45.1
2022-09-10T23:17:34.000Z,46.35
2022-09-10T23:22:34.000Z,46.72
2022-09-10T23:27:34.000Z,46.41
2022-09-10T23:32:35.000Z,47.32
2022-09-10T23:37:35.000Z,47.98
2022-09-10T23:42:34.000Z,49.17
2022-09-10T23:47:35.000Z,50.26
2022-09-10T23:52:35.000Z,55.16
2022-09-10T23:57:35.000Z,61.64
